Atlanta, Georgia
Current Conditions -  °F | °C
As of 12:52 AM on Saturday 29 Nov 2014 (Local Time) from KATL Reporting Station
Few Clouds Few Clouds  
Wind Chill:   Ceiling: Unl
Heat Index:   Visibility: 10mi
Dew Point: -6°   Wind: 0mph
Humidity: 54%   Direction: NA
Pressure: 30.25"   Gusts: NA
Location:  33.75°N, 84.39°W
Report Text: KATL 290552Z 00000KT 10SM FEW250 03/M06 A3025 RMK AO2 SLP250 T00281056 10067 20017 58007
Loading
Personal Weather Stations






























Interactive Weather Map New forecast layout! Learn more

10-Day Weather Forecast

Advertisements
Track Severe Weather on mobile